グアダラハラ の空港の天気 - METARとTAF

ドン・ミゲル・イダルゴ・イ・コスティージャ国際空港 ( MMGL / GDL ) - メキシコ ハリスコ州グアダラハラ
飛行場実況気象(Metar)
観測時間12/13 23:41 CST (12/14 05:41 UTC)
風向・風速静穏 0m/s
視程10km以上
天気現象
全天の4割程度の雲 雲底高度 2740m
全天の8割程度の雲 雲底高度 9140m
気温11℃
湿度67%
気圧1014.2hPa
METARMMGL 140541Z 00000KT 10SM SCT090 BKN300 11/05 A3020 RMK SLP142 52015 901 8/038
過去の天気等 Google飛行場航空写真 Wunderground天気予報

過去48時間のMETAR

飛行場予報(TAF)
発表時間: 12/13 22:54 CST (12/14 04:54 UTC)
予報対象時間: 14日0時 CST ~ 15日6時 CST
風向・風速静穏
視程10km以上
全天の4割程度の雲 雲底高度 3050m
全天の8割程度の雲 雲底高度 9140m
14日12時 CST から
風向・風速北北東 8m/s
視程10km以上
全天の8割程度の雲 雲底高度 9140m
14日21時 CST から
風向・風速北北東 5m/s
視程10km以上
全天の8割程度の雲 雲底高度 9140m
TAF MMGL 140454Z 1406/1512 00000KT P6SM SCT100 BKN300 TX22/1421Z TN06/1412Z
FM141800 03015KT P6SM BKN300
FM150300 03010KT P6SM BKN300